Flight Track Log - Related Links

Times and Time Zones

All times are in EDT time to prevent confusion due to time zone crossing. See the SWA2975 flight status page for this flight to view local times or setup timezone preferences in your user account.


Time Position Orientation Groundspeed Altitude Reporting Facility
EDT Latitude Longitude Course Direction KTS MPH feet Rate Location/Type
Tue 04:06:43 PM 39.8640 -104.6830 267° West 16 18  Level FlightAware ADS-B
Tue 04:07:12 PM 39.8640 -104.6860 270° West 15 17 2,416 Level FlightAware ADS-B
Tue 04:07:28 PM 39.8640 -104.6870 270° West 27 31 3,000 Level FlightAware ADS-B
Tue 04:07:40 PM 39.8650 -104.6870 360° North 16 18 3,462 Level FlightAware ADS-B
Tue 04:08:23 PM 39.8670 -104.6870 360° North 68 78 3,913 Level FlightAware ADS-B
Tue 04:08:44 PM 39.8790 -104.6870 360° North 150 173 7,347 Level FlightAware ADS-B
Tue 04:09:12 PM 39.9010 -104.6880 358° North 178 205 6,000 9,600 Climbing FlightAware ADS-B
Tue 04:09:24 PM 39.9110 -104.6920 343° North 189 217 6,400 1,950 Climbing FlightAware ADS-B
Tue 04:09:52 PM 39.9370 -104.7030 342° North 214 246 7,300 1,862 Climbing FlightAware ADS-B
Tue 04:10:22 PM 39.9670 -104.7150 343° North 250 288 8,200 2,040 Climbing FlightAware ADS-B
Tue 04:10:42 PM 39.9900 -104.7260 340° North 266 306 9,000 2,333 Climbing FlightAware ADS-B
Tue 04:10:58 PM 40.0060 -104.7420 323° Northwest 282 325 9,600 2,357 Climbing FlightAware ADS-B
Tue 04:11:38 PM 40.0280 -104.8090 293° West 307 353 11,200 3,146 Climbing FlightAware ADS-B
Tue 04:12:20 PM 40.0460 -104.8820 288° West 299 344 13,900 2,930 Climbing FlightAware ADS-B
Tue 04:13:04 PM 40.0470 -104.9570 271° West 334 384 15,400 1,906 Climbing FlightAware ADS-B
Tue 04:13:45 PM 40.0370 -105.0510 262° West 375 432 16,600 2,154 Climbing FlightAware ADS-B
Tue 04:14:22 PM 40.0290 -105.1340 263° West 387 445 18,200 2,667 Climbing FlightAware ADS-B
Tue 04:15:06 PM 40.0190 -105.2350 263° West 397 457 20,200 2,519 Climbing FlightAware ADS-B
Tue 04:15:43 PM 40.0100 -105.3270 263° West 409 471 21,600 2,385 Climbing FlightAware ADS-B
Tue 04:16:24 PM 39.9990 -105.4300 262° West 417 480 23,300 2,250 Climbing FlightAware ADS-B
Tue 04:17:03 PM 39.9900 -105.5260 263° West 426 490 24,600 1,976 Climbing FlightAware ADS-B
Tue 04:17:49 PM 39.9840 -105.6450 266° West 427 491 26,100 1,931 Climbing FlightAware ADS-B
Tue 04:18:30 PM 39.9900 -105.7520 274° West 435 501 27,400 1,643 Climbing FlightAware ADS-B
Tue 04:19:13 PM 39.9950 -105.8640 273° West 446 513 28,400 1,446 Climbing FlightAware ADS-B
Tue 04:19:53 PM 40.0010 -105.9710 274° West 455 524 29,400 1,407 Climbing FlightAware ADS-B
Tue 04:20:34 PM 40.0060 -106.0880 273° West 464 534 30,300 1,835 Climbing FlightAware ADS-B
Tue 04:21:18 PM 40.0120 -106.2110 274° West 453 521 32,000 2,795 Climbing FlightAware ADS-B
Tue 04:22:02 PM 40.0180 -106.3270 274° West 420 483 34,400 2,791 Climbing FlightAware ADS-B
Tue 04:22:44 PM 40.0220 -106.4300 273° West 399 459 36,000 1,829 Climbing FlightAware ADS-B
Tue 04:23:24 PM 40.0320 -106.5220 278° West 385 443 36,900 975 Climbing FlightAware ADS-B
Tue 04:24:04 PM 40.0440 -106.6130 280° West 394 453 37,300 375 Climbing FlightAware ADS-B
Tue 04:24:44 PM 40.0550 -106.7090 279° West 409 471 37,400 75 Climbing FlightAware ADS-B
Tue 04:25:24 PM 40.0650 -106.8080 278° West 423 487 37,400 300 Level FlightAware ADS-B
Tue 04:26:04 PM 40.0710 -106.9110 274° West 438 504 37,800 439 Climbing FlightAware ADS-B
Tue 04:26:46 PM 40.0740 -107.0250 272° West 447 514 38,000 136 Climbing FlightAware ADS-B
Tue 04:27:32 PM 40.0770 -107.1480 272° West 446 513 38,000  Level FlightAware ADS-B
Tue 04:28:12 PM 40.0790 -107.2530 271° West 446 513 38,000  Level FlightAware ADS-B
Tue 04:28:56 PM 40.0820 -107.3740 272° West 446 513 38,000  Level FlightAware ADS-B
Tue 04:29:30 PM 40.0850 -107.4630 273° West 445 512 38,000  Level FlightAware ADS-B
Tue 04:30:10 PM 40.0870 -107.5690 271° West 445 512 38,000  Level FlightAware ADS-B
Tue 04:30:46 PM 40.0890 -107.6670 272° West 447 514 38,000  Level FlightAware ADS-B
Tue 04:31:30 PM 40.0910 -107.7840 271° West 448 516 38,000  Level FlightAware ADS-B
Tue 04:32:15 PM 40.0930 -107.8970 271° West 450 518 38,000  Level FlightAware ADS-B
Tue 04:32:57 PM 40.0960 -108.0080 272° West 449 517 38,000  Level FlightAware ADS-B
Tue 04:33:42 PM 40.0980 -108.1410 271° West 447 514 38,000  Level FlightAware ADS-B
Tue 04:34:23 PM 40.1000 -108.2520 271° West 446 513 38,000  Level FlightAware ADS-B
Tue 04:35:05 PM 40.1020 -108.3650 271° West 444 511 38,000  Level FlightAware ADS-B
Tue 04:35:48 PM 40.1030 -108.4810 271° West 445 512 38,000  Level FlightAware ADS-B
Tue 04:36:31 PM 40.1050 -108.5910 271° West 447 514 38,000  Level FlightAware ADS-B
Tue 04:37:12 PM 40.1060 -108.6980 271° West 450 518 38,000  Level FlightAware ADS-B
Tue 04:37:52 PM 40.1070 -108.8160 271° West 455 524 38,000  Level FlightAware ADS-B
Tue 04:38:31 PM 40.1090 -108.9220 271° West 456 525 38,000  Level FlightAware ADS-B
Tue 04:39:06 PM 40.1130 -109.0190 273° West 457 526 38,000  Level FlightAware ADS-B
Tue 04:39:50 PM 40.1180 -109.1390 273° West 453 521 38,000  Level FlightAware ADS-B
Tue 04:40:31 PM 40.1210 -109.2420 272° West 451 519 38,000 -237 Level FlightAware ADS-B
Tue 04:41:06 PM 40.1250 -109.3430 273° West 453 521 37,700 -815 Descending FlightAware ADS-B
Tue 04:41:52 PM 40.1290 -109.4710 272° West 455 524 36,900 -1,000 Descending FlightAware ADS-B
Tue 04:42:48 PM 40.1340 -109.6260 272° West 457 526 36,000 -563 Descending FlightAware ADS-B
Tue 04:43:28 PM 40.1370 -109.7260 272° West 456 525 36,000  Level FlightAware ADS-B
Tue 04:44:14 PM 40.1410 -109.8600 272° West 455 524 36,000  Level FlightAware ADS-B
Tue 04:44:53 PM 40.1450 -109.9680 273° West 452 520 36,000 -1,129 Level FlightAware ADS-B
Tue 04:45:39 PM 40.1480 -110.0860 272° West 454 522 34,400 -1,909 Descending FlightAware ADS-B
Tue 04:46:21 PM 40.1490 -110.1900 271° West 445 512 33,200 -1,862 Descending FlightAware ADS-B
Tue 04:47:06 PM 40.1510 -110.3190 271° West 423 487 31,700 -2,067 Descending FlightAware ADS-B
Tue 04:47:51 PM 40.1660 -110.4260 280° West 407 468 30,100 -2,561 Descending FlightAware ADS-B
Tue 04:48:28 PM 40.1860 -110.5060 288° West 413 475 28,200 -1,888 Descending FlightAware ADS-B
Tue 04:49:20 PM 40.2220 -110.6270 291° West 407 468 27,300 -540 Descending FlightAware ADS-B
Tue 04:50:08 PM 40.2490 -110.7200 291° West 407 468 27,300 -1,485 Level FlightAware ADS-B
Tue 04:51:01 PM 40.2320 -110.6480 107° East 405 466 24,800 -1,648 Descending FlightAware ADS-B
Tue 04:51:39 PM 40.2560 -110.7200 294° West 405 466 24,800  Level FlightAware ADS-B
Tue 04:52:39 PM 40.2950 -110.8350 294° West 405 466 24,800  Level FlightAware ADS-B
Tue 04:53:27 PM 40.3260 -110.9260 294° West 405 466 24,800  Level FlightAware ADS-B
Tue 04:54:04 PM 40.3500 -110.9970 294° West 405 466 24,800 -1,981 Level FlightAware ADS-B
Tue 04:58:51 PM 40.2340 -111.7560 259° West 321 369 14,100 -1,911 Descending FlightAware ADS-B
Tue 04:59:40 PM 40.2770 -111.8140 314° West 321 369 14,100 -1,500 Level FlightAware ADS-B
Tue 05:00:23 PM 40.3340 -111.8750 321° Northwest 305 351 11,800 -2,207 Descending FlightAware ADS-B
Tue 05:01:07 PM 40.3830 -111.9230 323° Northwest 290 334 10,900 -1,159 Descending FlightAware ADS-B
Tue 05:01:51 PM 40.4390 -111.9350 351° North 283 326 10,100 -917 Descending FlightAware ADS-B
Tue 05:02:19 PM 40.4740 -111.9380 356° North 266 306 9,800 -840 Descending FlightAware ADS-B
Tue 05:02:41 PM 40.5020 -111.9420 354° North 262 302 9,400 -1,269 Descending FlightAware ADS-B
Tue 05:03:11 PM 40.5380 -111.9460 355° North 258 297 8,700 -1,304 Descending FlightAware ADS-B
Tue 05:03:50 PM 40.5810 -111.9500 356° North 242 278 7,900 -1,322 Descending FlightAware ADS-B
Tue 05:04:10 PM 40.6040 -111.9530 354° North 234 269 7,400 -1,429 Descending FlightAware ADS-B
Tue 05:04:32 PM 40.6280 -111.9560 355° North 219 252 6,900 -1,174 Descending FlightAware ADS-B
Tue 05:04:56 PM 40.6510 -111.9590 354° North 202 232 6,500 -1,038 Descending FlightAware ADS-B
Tue 05:05:24 PM 40.6760 -111.9610 357° North 180 207 6,000 -1,034 Descending FlightAware ADS-B
Tue 05:05:54 PM 40.7000 -111.9640 355° North 167 192 5,500 -1,000 Descending FlightAware ADS-B
Tue 05:06:18 PM 40.7170 -111.9660 355° North 156 180 5,100 -844 Descending FlightAware ADS-B
Tue 05:06:58 PM 40.7460 -111.9700 354° North 152 175 4,600 -706 Descending FlightAware ADS-B
Tue 05:07:26 PM 40.7660 -111.9720 356° North 152 175 4,300 -327 Descending FlightAware ADS-B
Tue 05:07:53 PM 40.7820 -111.9740 355° North 152 175 4,300  Level FlightAware ADS-B

Login

Don't have an account? Register now (free) for customized features, flight alerts, and more!